createdAt,value
2023-05-02T00:02:02.812Z,6.60
2023-05-02T00:07:12.621Z,7.50
2023-05-02T00:12:23.522Z,7.30
2023-05-02T00:17:33.609Z,7.00
2023-05-02T00:22:43.989Z,6.30
2023-05-02T00:27:53.760Z,6.80
2023-05-02T00:33:03.529Z,6.80
2023-05-02T00:38:13.349Z,7.80
2023-05-02T00:43:23.209Z,7.30
2023-05-02T00:48:33.069Z,7.20
2023-05-02T00:53:43.400Z,8.20
2023-05-02T00:58:53.979Z,7.00
2023-05-02T01:04:21.910Z,7.40
2023-05-02T01:09:45.234Z,6.90
2023-05-02T01:15:00.310Z,6.60
2023-05-02T01:20:16.109Z,8.30
2023-05-02T01:25:38.562Z,7.10
2023-05-02T01:30:51.977Z,6.40
2023-05-02T01:36:05.089Z,6.70
2023-05-02T01:41:16.612Z,8.30
2023-05-02T01:46:29.400Z,7.80
2023-05-02T01:51:46.362Z,8.70
2023-05-02T01:56:58.180Z,7.60
2023-05-02T02:02:10.517Z,6.80
2023-05-02T02:07:20.452Z,6.20
2023-05-02T02:12:38.550Z,7.80
2023-05-02T02:17:56.878Z,6.50
2023-05-02T02:23:10.217Z,7.70
2023-05-02T02:28:20.217Z,10.00
2023-05-02T02:33:33.942Z,6.70
2023-05-02T02:38:51.252Z,6.00
2023-05-02T02:44:19.672Z,7.70
2023-05-02T02:49:41.214Z,6.60
2023-05-02T02:54:59.679Z,7.60
2023-05-02T03:00:18.119Z,7.20
2023-05-02T03:05:29.126Z,6.10
2023-05-02T03:10:39.128Z,7.70
2023-05-02T03:16:31.457Z,7.30
2023-05-02T03:21:42.180Z,8.20
2023-05-02T03:26:52.119Z,9.30
2023-05-02T03:32:02.047Z,9.60
2023-05-02T03:37:12.164Z,11.60
2023-05-02T03:42:22.920Z,11.50
2023-05-02T03:47:32.698Z,12.80
2023-05-02T03:52:42.392Z,9.80
2023-05-02T03:57:52.342Z,11.90
2023-05-02T04:03:03.953Z,8.30
2023-05-02T04:08:13.885Z,11.70
2023-05-02T04:13:23.595Z,9.00
2023-05-02T04:18:33.523Z,9.50
2023-05-02T04:23:43.294Z,11.40
2023-05-02T04:28:52.928Z,8.00
2023-05-02T04:34:04.593Z,10.90
2023-05-02T04:39:14.331Z,10.50
2023-05-02T04:44:24.157Z,9.80
2023-05-02T04:49:33.920Z,7.30
2023-05-02T04:54:43.521Z,7.70
2023-05-02T04:59:53.226Z,12.10
2023-05-02T05:05:04.773Z,8.70
2023-05-02T05:10:15.531Z,13.40
2023-05-02T05:15:26.334Z,13.00
2023-05-02T05:20:36.207Z,9.70
2023-05-02T05:25:46.506Z,8.10
2023-05-02T05:30:56.389Z,16.40
2023-05-02T05:36:12.338Z,14.20
2023-05-02T05:41:22.338Z,14.50
2023-05-02T05:46:32.135Z,16.70
2023-05-02T05:51:42.583Z,26.80
2023-05-02T05:56:53.021Z,32.30
2023-05-02T06:02:02.786Z,46.80
2023-05-02T06:07:12.789Z,23.10
2023-05-02T06:12:23.090Z,23.60
2023-05-02T06:17:32.922Z,25.70
2023-05-02T06:22:42.904Z,23.40
2023-05-02T06:27:59.113Z,20.90
2023-05-02T06:33:12.706Z,16.20
2023-05-02T06:38:22.638Z,20.50
2023-05-02T06:43:33.253Z,22.00
2023-05-02T06:48:43.080Z,22.60
2023-05-02T06:53:53.056Z,16.10
2023-05-02T06:59:03.280Z,12.20
2023-05-02T07:04:13.176Z,10.20
2023-05-02T07:09:22.933Z,9.40
2023-05-02T07:14:32.711Z,10.50
2023-05-02T07:19:58.757Z,10.90
2023-05-02T07:25:10.354Z,12.30
2023-05-02T07:30:20.061Z,15.30
2023-05-02T07:35:29.772Z,11.70
2023-05-02T07:40:39.508Z,9.20
2023-05-02T07:45:49.585Z,13.30
2023-05-02T07:51:07.276Z,11.70
2023-05-02T07:56:17.066Z,11.40
2023-05-02T08:01:26.947Z,10.00
2023-05-02T08:06:37.152Z,10.10
2023-05-02T08:11:46.892Z,13.80
2023-05-02T08:16:56.578Z,17.10
2023-05-02T08:22:06.480Z,8.70
2023-05-02T08:27:16.103Z,10.50
2023-05-02T08:32:25.881Z,9.50
2023-05-02T08:37:36.702Z,9.10
2023-05-02T08:42:48.839Z,8.40
2023-05-02T08:48:00.383Z,12.20
2023-05-02T08:53:12.415Z,15.40
2023-05-02T08:58:22.126Z,15.40
2023-05-02T09:03:36.384Z,14.20
2023-05-02T09:08:49.108Z,13.00
2023-05-02T09:14:04.250Z,17.60
2023-05-02T09:19:25.418Z,16.30
2023-05-02T09:24:35.152Z,13.70
2023-05-02T09:29:46.314Z,17.30
2023-05-02T09:40:30.430Z,19.50
2023-05-02T09:45:40.516Z,17.20
2023-05-02T09:50:50.174Z,12.00
2023-05-02T09:56:11.312Z,11.20
2023-05-02T10:01:22.794Z,9.40
2023-05-02T10:06:34.291Z,14.00
2023-05-02T10:11:46.398Z,10.20
2023-05-02T10:17:06.711Z,11.50
2023-05-02T10:22:20.266Z,10.10
2023-05-02T10:27:30.905Z,11.40
2023-05-02T10:32:42.201Z,13.10
2023-05-02T10:37:53.934Z,11.40
2023-05-02T10:43:03.851Z,14.10
2023-05-02T10:48:22.571Z,14.80
2023-05-02T10:53:36.946Z,14.00
2023-05-02T10:58:49.571Z,14.60
2023-05-02T11:04:03.815Z,12.30
2023-05-02T11:09:40.138Z,14.90
2023-05-02T11:14:54.396Z,6.30
2023-05-02T11:20:29.801Z,8.00
2023-05-02T11:25:45.661Z,5.90
2023-05-02T11:30:56.127Z,7.60
2023-05-02T11:36:07.250Z,8.70
2023-05-02T11:41:17.951Z,6.90
2023-05-02T11:46:27.791Z,7.20
2023-05-02T11:51:38.110Z,8.50
2023-05-02T11:56:48.731Z,6.90
2023-05-02T12:01:58.624Z,6.60
2023-05-02T12:07:10.153Z,5.80
2023-05-02T12:12:25.410Z,6.70
2023-05-02T12:17:36.559Z,6.50
2023-05-02T12:22:47.909Z,7.40
2023-05-02T12:28:08.297Z,6.70
2023-05-02T12:33:18.649Z,7.60
2023-05-02T12:38:28.694Z,6.90
2023-05-02T12:43:55.071Z,6.90
2023-05-02T12:49:12.927Z,6.40
2023-05-02T12:54:27.126Z,7.70
2023-05-02T12:59:37.680Z,7.80
2023-05-02T13:04:47.616Z,7.70
2023-05-02T13:09:57.416Z,7.40
2023-05-02T13:15:09.032Z,5.90
2023-05-02T13:20:19.215Z,7.90
2023-05-02T13:25:29.038Z,5.90
2023-05-02T13:30:38.745Z,7.10
2023-05-02T13:35:48.640Z,5.30
2023-05-02T13:40:58.379Z,6.80
2023-05-02T13:46:08.355Z,6.90
2023-05-02T13:51:18.151Z,7.90
2023-05-02T13:56:28.122Z,7.40
2023-05-02T14:01:40.795Z,10.90
2023-05-02T14:06:50.930Z,8.50
2023-05-02T14:12:00.755Z,10.70
2023-05-02T14:17:10.477Z,9.50
2023-05-02T14:22:20.229Z,8.70
2023-05-02T14:27:29.996Z,8.80
2023-05-02T14:32:39.841Z,9.30
2023-05-02T14:37:49.727Z,9.70
2023-05-02T14:42:59.533Z,9.80
2023-05-02T14:48:11.156Z,8.10
2023-05-02T14:53:22.134Z,7.80
2023-05-02T14:58:31.921Z,7.80
2023-05-02T15:03:56.998Z,8.30
2023-05-02T15:09:12.361Z,8.70
2023-05-02T15:14:21.994Z,6.10
2023-05-02T15:19:31.702Z,7.00
2023-05-02T15:24:41.292Z,9.40
2023-05-02T15:29:50.971Z,6.50
2023-05-02T15:35:00.895Z,5.80
2023-05-02T15:40:14.667Z,4.60
2023-05-02T15:45:24.629Z,10.60
2023-05-02T15:50:34.585Z,7.80
2023-05-02T15:55:46.111Z,7.60
2023-05-02T16:00:56.303Z,7.90
2023-05-02T16:06:07.973Z,6.20
2023-05-02T16:11:17.784Z,4.40
2023-05-02T16:16:27.706Z,7.80
2023-05-02T16:21:37.766Z,6.80
2023-05-02T16:26:47.727Z,8.00
2023-05-02T16:31:57.572Z,7.90
2023-05-02T16:37:07.758Z,8.90
2023-05-02T16:42:17.597Z,9.70
2023-05-02T16:47:27.371Z,8.30
2023-05-02T16:52:38.274Z,7.20
2023-05-02T16:57:48.147Z,8.30
2023-05-02T17:02:58.578Z,10.30
2023-05-02T17:08:09.844Z,8.50
2023-05-02T17:13:22.032Z,7.30
2023-05-02T17:18:32.021Z,10.10
2023-05-02T17:23:42.408Z,8.20
2023-05-02T17:28:54.022Z,8.60
2023-05-02T17:34:04.012Z,6.60
2023-05-02T17:39:16.094Z,7.30
2023-05-02T17:44:25.984Z,7.50
2023-05-02T17:49:36.713Z,6.30
2023-05-02T17:54:46.780Z,6.30
2023-05-02T17:59:59.817Z,8.00
2023-05-02T18:05:11.059Z,7.60
2023-05-02T18:10:21.629Z,5.60
2023-05-02T18:15:31.532Z,5.70
2023-05-02T18:20:44.846Z,7.10
2023-05-02T18:25:54.719Z,7.10
2023-05-02T18:31:05.090Z,7.60
2023-05-02T18:36:15.139Z,6.80
2023-05-02T18:41:25.077Z,7.60
2023-05-02T18:46:34.771Z,6.50
2023-05-02T18:51:44.621Z,6.00
2023-05-02T18:56:54.270Z,5.00
2023-05-02T19:02:04.446Z,5.10
2023-05-02T19:07:14.780Z,5.90
2023-05-02T19:12:24.855Z,4.70
2023-05-02T19:17:35.441Z,3.50
2023-05-02T19:22:46.372Z,4.60
2023-05-02T19:27:56.228Z,5.40
2023-05-02T19:33:06.138Z,7.60
2023-05-02T19:38:16.010Z,6.30
2023-05-02T19:43:25.849Z,6.10
2023-05-02T19:48:35.865Z,5.80
2023-05-02T19:53:45.845Z,6.10
2023-05-02T19:58:56.999Z,6.50
2023-05-02T20:04:07.166Z,5.90
2023-05-02T20:09:17.399Z,4.70
2023-05-02T20:14:27.263Z,5.40
2023-05-02T20:19:37.069Z,5.40
2023-05-02T20:24:46.893Z,5.00
2023-05-02T20:29:57.130Z,6.00
2023-05-02T20:35:07.479Z,5.50
2023-05-02T20:40:19.886Z,6.60
2023-05-02T20:45:29.990Z,6.50
2023-05-02T20:50:40.065Z,6.70
2023-05-02T20:55:50.031Z,5.30
2023-05-02T21:00:59.845Z,8.80
2023-05-02T21:06:09.873Z,6.10
2023-05-02T21:11:20.669Z,4.90
2023-05-02T21:16:30.559Z,3.90
2023-05-02T21:21:40.576Z,4.50
2023-05-02T21:26:50.436Z,3.90
2023-05-02T21:32:00.190Z,3.80
2023-05-02T21:37:09.923Z,10.10
2023-05-02T21:42:19.839Z,6.70
2023-05-02T21:47:29.851Z,7.00
2023-05-02T21:52:39.752Z,5.50
2023-05-02T21:57:49.528Z,5.80
2023-05-02T22:03:49.159Z,5.60
2023-05-02T22:08:59.010Z,5.40
2023-05-02T22:14:08.795Z,5.30
2023-05-02T22:19:18.475Z,7.00
2023-05-02T22:24:28.410Z,7.90
2023-05-02T22:29:38.357Z,5.30
2023-05-02T22:34:48.147Z,6.50
2023-05-02T22:39:58.020Z,6.30
2023-05-02T22:45:09.611Z,4.80
2023-05-02T22:50:20.136Z,8.70
2023-05-02T22:55:30.160Z,7.00
2023-05-02T23:00:40.020Z,5.80
2023-05-02T23:05:50.285Z,8.70
2023-05-02T23:11:00.285Z,26.30
2023-05-02T23:16:10.992Z,96.60
2023-05-02T23:21:21.194Z,56.40
2023-05-02T23:26:31.141Z,42.90
2023-05-02T23:31:41.176Z,37.80
2023-05-02T23:36:52.983Z,14.90
2023-05-02T23:42:03.974Z,21.80
2023-05-02T23:47:13.824Z,20.40
2023-05-02T23:52:23.737Z,17.00
2023-05-02T23:57:34.252Z,23.90
